Terminal Aerodrome Forecast
Issued by NWS Sioux Falls, SD

Home | Current Version | Previous Version | Text Only | Print | Product List | Glossary On
Versions: 1 2 3 4 5 6 7 8 9 10 11 12 13 14 15 16 17
000
FTUS43 KFSD 282332
TAFHON
TAF
KHON 282332Z 2900/2924 33015G23KT P6SM BKN015
      TEMPO 2900/2901 33010KT SCT015 OVC150
     FM290200 33024G34KT P6SM OVC015
     FM291100 34018G30KT P6SM BKN020
     FM291800 33015G22KT P6SM SCT025=

USA.gov is the U.S. government's official web portal to all federal, state and local government web resources and services.